WetterOnline ( http://www.wetteronline.de )

Wetter aktuell Denkendorf

Aktuelles Wetter: Gelbelsee (539m)

6-stündlich | Neueste Meldungen
Ortszeit Temperatur Wetter
Mo, 18.03. 19:00 4.2° C leicht bewölkt
Mo, 18.03. 13:00 5.0° C wolkig
Mo, 18.03. 7:00 1.0° C wolkig
Mo, 18.03. 1:00 3.2° C bewölkt
So, 17.03. 19:00 4.2° C Regen
So, 17.03. 13:00 14.2° C bedeckt
So, 17.03. 7:00 6.6° C leicht bewölkt
So, 17.03. 1:00 6.1° C leicht bewölkt
Ortszeit Temperatur Wetter
Di, 19.03. 0:00 0.8° C wolkenlos
Mo, 18.03. 23:50 0.8° C wolkenlos
Mo, 18.03. 23:40 0.9° C wolkenlos
Mo, 18.03. 23:30 0.4° C leicht bewölkt
Mo, 18.03. 23:20 0.4° C leicht bewölkt
Mo, 18.03. 23:10 0.9° C wolkig
Mo, 18.03. 23:00 0.7° C leicht bewölkt
Mo, 18.03. 22:30 1.4° C leicht bewölkt
Mo, 18.03. 22:00 1.5° C leicht bewölkt
Mo, 18.03. 21:30 2.0° C leicht bewölkt
Mo, 18.03. 21:00 2.1° C fast wolkenlos
Ortszeit Relative Feuchte Sichtweite
Mo, 18.03. 19:00 63% >70 km
Mo, 18.03. 13:00 55% 60 km
Mo, 18.03. 7:00 87% 55 km
Mo, 18.03. 1:00 78% >70 km
So, 17.03. 19:00 81% 45 km
So, 17.03. 13:00 40% 65 km
So, 17.03. 7:00 62% 65 km
So, 17.03. 1:00 81% 50 km
Ortszeit Relative Feuchte Sichtweite
Di, 19.03. 0:00 88% 45 km
Mo, 18.03. 23:50 88% -
Mo, 18.03. 23:40 88% -
Mo, 18.03. 23:30 91% 35 km
Mo, 18.03. 23:20 91% -
Mo, 18.03. 23:10 90% -
Mo, 18.03. 23:00 93% 23 km
Mo, 18.03. 22:30 89% 35 km
Mo, 18.03. 22:00 88% 45 km
Mo, 18.03. 21:30 87% 40 km
Mo, 18.03. 21:00 86% 55 km
Ortszeit Niederschlagsmenge Niederschlagsart
Mo, 18.03. 19:00 0.1 l/m2 in 12 Std. -
Mo, 18.03. 13:00 0.1 l/m2 in 6 Std. Niederschlag
Mo, 18.03. 7:00 0.6 l/m2 in 12 Std. -
Mo, 18.03. 1:00 0.6 l/m2 in 6 Std. Niederschlag
So, 17.03. 19:00 0.1 l/m2 in 12 Std. Regen, Niederschlag
So, 17.03. 13:00 0.0 l/m2 in 6 Std. -
So, 17.03. 7:00 0.0 l/m2 in 12 Std. -
So, 17.03. 1:00 0.0 l/m2 in 6 Std. -
Ortszeit Niederschlagsmenge Niederschlagsart
Di, 19.03. 0:00 0.0 l/m2 in 1 Std. -
Mo, 18.03. 23:50 keine Meldung -
Mo, 18.03. 23:40 keine Meldung -
Mo, 18.03. 23:30 0.0 l/m2 in 1 Std. -
Mo, 18.03. 23:20 keine Meldung -
Mo, 18.03. 23:10 keine Meldung -
Mo, 18.03. 23:00 0.0 l/m2 in 1 Std. -
Mo, 18.03. 22:30 0.0 l/m2 in 1 Std. -
Mo, 18.03. 22:00 0.0 l/m2 in 1 Std. Niederschlag
Mo, 18.03. 21:30 0.0 l/m2 in 1 Std. -
Mo, 18.03. 21:00 0.0 l/m2 in 1 Std. -
Ortszeit Stärke Spitze Richtung
km/h Bft. km/h Grad Sektor
Mo, 18.03. 19:00 9 2 39 290° W
Mo, 18.03. 13:00 24 4 41 290° W
Mo, 18.03. 7:00 9 2 31 240° SW
Mo, 18.03. 1:00 18 3 43 260° W
So, 17.03. 19:00 18 3 68 280° W
So, 17.03. 13:00 15 3 31 220° SW
So, 17.03. 7:00 11 2 25 200° S
So, 17.03. 1:00 9 2 15 220° SW
Ortszeit Stärke Spitze Richtung
km/h Bft. km/h Grad Sektor
Di, 19.03. 0:00 7 2 14 220° SW
Mo, 18.03. 23:50 7 2 - 220° SW
Mo, 18.03. 23:40 9 2 - 220° SW
Mo, 18.03. 23:30 9 2 15 220° SW
Mo, 18.03. 23:20 9 2 - 220° SW
Mo, 18.03. 23:10 11 2 - 220° SW
Mo, 18.03. 23:00 7 2 11 210° SW
Mo, 18.03. 22:30 7 2 11 310° NW
Mo, 18.03. 22:00 9 2 15 330° NW
Mo, 18.03. 21:30 7 2 11 300° NW
Mo, 18.03. 21:00 4 1 14 300° NW
Ortszeit Untergrenze Bedeckung Gattung
total tief tief mittel hoch
Mo, 18.03. 19:00 3000 m 2/8 2/8 - - -
Mo, 18.03. 13:00 990 m 6/8 6/8 - - -
Mo, 18.03. 7:00 1500 m 8/8 3/8 - - -
Mo, 18.03. 1:00 690 m 8/8 4/8 - - -
So, 17.03. 19:00 1260 m 7/8 7/8 - - -
So, 17.03. 13:00 2700 m 8/8 8/8 - - -
So, 17.03. 7:00 9000 m 6/8 0/8 - - -
So, 17.03. 1:00 8700 m 4/8 0/8 - - -
Ortszeit Bedeckungsgrad in Achtel und Wolkenuntergrenze
Di, 19.03. 0:00 keine Wolken
Mo, 18.03. 23:50 keine Wolken
Mo, 18.03. 23:40 keine Wolken
Mo, 18.03. 23:30 3(1800m)
Mo, 18.03. 23:20 3(1800m)
Mo, 18.03. 23:10 5(1800m)
Mo, 18.03. 23:00 2(1800m)
Mo, 18.03. 22:30 4(1500m) 3(1800m)
Mo, 18.03. 22:00 2(750m)
Mo, 18.03. 21:30 3(1500m) 4(1500m)
Mo, 18.03. 21:00 1(1500m)
Ortszeit Luftdruck NN (hPa) Tendenz (hPa in 3 Std.)
Mo, 18.03. 19:00 1022 + 1,9
Mo, 18.03. 13:00 1020 + 1,0
Mo, 18.03. 7:00 1018 + 0,9
Mo, 18.03. 1:00 1016 + 1,6
So, 17.03. 19:00 1010 + 4,0
So, 17.03. 13:00 1004 - 1,1
So, 17.03. 7:00 1007 - 0,8
So, 17.03. 1:00 1009 - 1,1
Ortszeit Luftdruck NN (hPa) Tendenz (hPa in 3 Std.)
Di, 19.03. 0:00 1025 + 1,4
Mo, 18.03. 23:50 1025 keine Meldung
Mo, 18.03. 23:40 1025 keine Meldung
Mo, 18.03. 23:30 1025 + 1,4
Mo, 18.03. 23:20 1025 keine Meldung
Mo, 18.03. 23:10 1025 keine Meldung
Mo, 18.03. 23:00 1025 + 1,0
Mo, 18.03. 22:30 1024 + 1,1
Mo, 18.03. 22:00 1024 + 1,7
Mo, 18.03. 21:30 1024 + 1,8
Mo, 18.03. 21:00 1023 + 2,0
Ortszeit Schneehöhe (cm)
Mo, 18.03. 19:00 0
Mo, 18.03. 13:00 0
Mo, 18.03. 7:00 0
Mo, 18.03. 1:00 0
So, 17.03. 19:00 0
So, 17.03. 13:00 0
So, 17.03. 7:00 0
So, 17.03. 1:00 0
Ortszeit Schneehöhe (cm)
Di, 19.03. 0:00 0
Mo, 18.03. 23:50 0
Mo, 18.03. 23:40 0
Mo, 18.03. 23:30 0
Mo, 18.03. 23:20 0
Mo, 18.03. 23:10 0
Mo, 18.03. 23:00 0
Mo, 18.03. 22:30 0
Mo, 18.03. 22:00 0
Mo, 18.03. 21:30 0
Mo, 18.03. 21:00 0
Link zu dieser Seite / Seite empfehlen

Das Wetter in ...